Time;durP1;ratioP1;P1;durP2;ratioP2;P2;SDS_P1;SDS_P2;PMS_P1;PMS_P2;Temp;Humidity;BMP_temperature;BMP_pressure;BME280_temperature;BME280_humidity;BME280_pressure;Samples;Min_cycle;Max_cycle;Signal;HPM_P1;HPM_P2
2023/05/10 00:00:54;;;;;;;766.80;693.87;;;12.80;99.90;;;;;;6224780;23;20416;-88
2023/05/10 00:03:24;;;;;;;766.90;692.87;;;12.80;99.90;;;;;;6215314;23;20499;-89
2023/05/10 00:05:51;;;;;;;759.87;685.97;;;12.90;99.90;;;;;;6225383;23;20459;-89
2023/05/10 00:08:20;;;;;;;764.43;691.50;;;12.80;99.90;;;;;;6215418;23;20440;-89
2023/05/10 00:10:47;;;;;;;764.87;691.47;;;12.90;99.90;;;;;;6215452;23;20423;-89
2023/05/10 00:13:14;;;;;;;768.80;695.30;;;12.90;99.90;;;;;;6215431;23;20412;-89
2023/05/10 00:15:41;;;;;;;778.40;704.80;;;12.90;99.90;;;;;;6215547;23;20412;-89
2023/05/10 00:18:08;;;;;;;769.87;696.37;;;12.90;99.90;;;;;;6215608;23;20408;-89
2023/05/10 00:20:37;;;;;;;775.30;701.53;;;13.00;99.90;;;;;;6225429;23;20888;-89
2023/05/10 00:23:03;;;;;;;772.60;700.20;;;13.00;99.90;;;;;;6215082;23;20496;-89
2023/05/10 00:25:32;;;;;;;773.63;701.13;;;13.00;99.90;;;;;;6215459;23;20451;-89
2023/05/10 00:28:01;;;;;;;771.80;699.20;;;12.90;99.90;;;;;;6215155;23;20467;-89
2023/05/10 00:30:28;;;;;;;782.90;710.40;;;12.90;99.90;;;;;;6215135;23;20412;-90
2023/05/10 00:32:55;;;;;;;780.30;706.70;;;12.90;99.90;;;;;;6215361;23;20413;-89
2023/05/10 00:35:22;;;;;;;755.77;682.57;;;12.90;99.90;;;;;;6215355;23;20782;-89
2023/05/10 00:37:49;;;;;;;759.10;687.57;;;12.90;99.90;;;;;;6215469;23;20408;-89
2023/05/10 00:40:16;;;;;;;753.13;682.60;;;12.80;99.90;;;;;;6215520;23;20446;-89
2023/05/10 00:42:44;;;;;;;761.20;690.10;;;12.80;99.90;;;;;;6214876;23;20412;-88
2023/05/10 00:45:11;;;;;;;773.07;702.20;;;12.80;99.90;;;;;;6214787;23;20904;-89
2023/05/10 00:47:39;;;;;;;783.37;711.07;;;12.70;99.90;;;;;;6215202;23;21019;-89
2023/05/10 00:50:10;;;;;;;765.00;694.20;;;12.70;99.90;;;;;;6214624;23;20419;-88
2023/05/10 00:52:37;;;;;;;764.73;693.50;;;12.70;99.90;;;;;;6215292;23;20401;-88
2023/05/10 00:55:05;;;;;;;770.33;700.17;;;12.70;99.90;;;;;;6215663;23;20491;-88
2023/05/10 00:57:32;;;;;;;756.87;687.57;;;12.60;99.90;;;;;;6213845;23;20486;-89
2023/05/10 01:00:00;;;;;;;765.77;697.07;;;12.60;99.90;;;;;;6225060;23;20459;-88
2023/05/10 01:02:27;;;;;;;759.70;689.60;;;12.60;99.90;;;;;;6224743;23;20491;-89
2023/05/10 01:04:54;;;;;;;764.53;693.63;;;12.60;99.90;;;;;;6224667;23;20400;-89
2023/05/10 01:07:22;;;;;;;767.53;695.67;;;12.60;99.90;;;;;;6214713;23;20490;-89
2023/05/10 01:09:48;;;;;;;760.30;688.27;;;12.60;99.90;;;;;;6214529;23;20500;-88
2023/05/10 01:12:16;;;;;;;773.17;702.07;;;12.60;99.90;;;;;;6214953;23;20434;-88
2023/05/10 01:14:43;;;;;;;765.23;694.47;;;12.50;99.90;;;;;;6214659;23;21003;-88
2023/05/10 01:17:13;;;;;;;769.20;698.40;;;12.50;99.90;;;;;;6214800;23;20416;-88
2023/05/10 01:19:40;;;;;;;788.87;717.87;;;12.50;99.90;;;;;;6214806;23;20412;-88
2023/05/10 01:22:31;;;;;;;767.40;696.40;;;12.50;99.90;;;;;;6215018;23;20471;-88
2023/05/10 01:25:32;;;;;;;779.73;708.30;;;12.60;99.90;;;;;;6215106;23;20433;-88
2023/05/10 01:28:33;;;;;;;768.07;698.07;;;12.50;99.90;;;;;;6214625;23;20419;-88
2023/05/10 01:31:31;;;;;;;783.27;712.37;;;12.50;99.90;;;;;;6204844;23;20412;-89
2023/05/10 01:34:05;;;;;;;777.23;705.90;;;12.50;99.90;;;;;;6225225;23;20698;-88
2023/05/10 01:36:40;;;;;;;771.43;699.43;;;12.50;99.90;;;;;;6214823;23;20724;-88
2023/05/10 01:39:16;;;;;;;777.83;705.43;;;12.50;99.90;;;;;;6214157;23;20427;-88
2023/05/10 01:41:49;;;;;;;772.00;699.57;;;12.50;99.90;;;;;;6214577;23;20396;-88
2023/05/10 01:44:35;;;;;;;767.10;695.17;;;12.50;99.90;;;;;;6214900;23;20774;-88
2023/05/10 01:47:23;;;;;;;765.17;693.47;;;12.50;99.90;;;;;;6214871;23;20428;-88
2023/05/10 01:49:55;;;;;;;768.27;695.63;;;12.60;99.90;;;;;;6224769;23;20479;-88
2023/05/10 01:52:27;;;;;;;762.80;692.53;;;12.50;99.90;;;;;;6224491;23;20789;-89
2023/05/10 01:55:01;;;;;;;777.67;705.57;;;12.50;99.90;;;;;;6214821;23;20450;-88
2023/05/10 01:57:33;;;;;;;775.33;702.53;;;12.50;99.90;;;;;;6214981;23;20393;-87
2023/05/10 02:00:02;;;;;;;759.80;688.10;;;12.40;99.90;;;;;;6224550;23;20412;-88
2023/05/10 02:02:31;;;;;;;770.97;698.77;;;12.50;99.90;;;;;;6214736;23;20414;-88
2023/05/10 02:05:00;;;;;;;785.77;714.20;;;12.50;99.90;;;;;;6214306;23;20415;-87
2023/05/10 02:07:29;;;;;;;778.70;706.17;;;12.50;99.90;;;;;;6224313;23;20420;-88
2023/05/10 02:09:57;;;;;;;770.73;698.10;;;12.40;99.90;;;;;;6214612;23;20458;-88
2023/05/10 02:12:27;;;;;;;767.77;695.60;;;12.50;99.90;;;;;;6214339;23;20412;-88
2023/05/10 02:14:55;;;;;;;778.57;705.07;;;12.40;99.90;;;;;;6216784;23;20780;-88
2023/05/10 02:17:24;;;;;;;778.57;705.00;;;12.40;99.90;;;;;;6216249;23;20412;-88
2023/05/10 02:19:52;;;;;;;777.90;704.20;;;12.30;99.90;;;;;;6216506;23;20412;-85
2023/05/10 02:22:22;;;;;;;779.77;705.20;;;12.40;99.90;;;;;;6226692;23;20409;-85
2023/05/10 02:24:50;;;;;;;794.23;718.93;;;12.40;99.90;;;;;;6226548;23;20799;-88
2023/05/10 02:27:22;;;;;;;792.10;716.70;;;12.50;99.90;;;;;;6216798;23;20412;-88
2023/05/10 02:30:02;;;;;;;787.17;711.13;;;12.50;99.90;;;;;;6215347;23;20423;-88
2023/05/10 02:35:26;;;;;;;799.20;721.90;;;12.50;99.90;;;;;;6216042;23;20724;-88
2023/05/10 02:37:55;;;;;;;784.50;706.87;;;12.60;99.90;;;;;;6189331;23;20410;-87
2023/05/10 02:40:23;;;;;;;780.73;703.33;;;12.60;99.90;;;;;;6216269;23;20414;-87
2023/05/10 02:42:56;;;;;;;771.43;693.63;;;12.60;99.90;;;;;;6216492;23;20498;-89
2023/05/10 02:45:27;;;;;;;776.90;698.90;;;12.60;99.90;;;;;;6216190;23;20414;-89
2023/05/10 02:47:55;;;;;;;772.37;693.73;;;12.50;99.90;;;;;;6216162;23;20455;-88
2023/05/10 02:50:23;;;;;;;790.43;712.77;;;12.50;99.90;;;;;;6215579;23;20412;-87
2023/05/10 02:52:52;;;;;;;776.53;699.07;;;12.50;99.90;;;;;;6216152;23;20418;-87
2023/05/10 02:55:23;;;;;;;787.83;709.87;;;12.50;99.90;;;;;;6216039;23;20415;-88
2023/05/10 02:57:56;;;;;;;794.10;717.00;;;12.50;99.90;;;;;;6226480;23;20408;-88
2023/05/10 03:00:23;;;;;;;803.20;726.33;;;12.50;99.90;;;;;;6226106;23;20510;-88
2023/05/10 03:02:50;;;;;;;796.50;719.63;;;12.50;99.90;;;;;;6215892;23;20458;-87
2023/05/10 03:05:17;;;;;;;798.63;720.87;;;12.60;99.90;;;;;;6226006;23;20432;-87
2023/05/10 03:07:44;;;;;;;800.20;723.40;;;12.60;99.90;;;;;;6215560;23;20459;-88
2023/05/10 03:10:11;;;;;;;799.47;721.80;;;12.60;99.90;;;;;;6226312;23;20412;-88
2023/05/10 03:12:51;;;;;;;805.33;727.43;;;12.50;99.90;;;;;;6216180;23;20418;-88
2023/05/10 03:15:26;;;;;;;805.67;727.40;;;12.50;99.90;;;;;;6226189;23;20388;-88
2023/05/10 03:17:57;;;;;;;808.57;731.43;;;12.50;99.90;;;;;;6216727;23;20856;-90
2023/05/10 03:20:27;;;;;;;801.43;722.97;;;12.60;99.90;;;;;;6216466;23;20786;-89
2023/05/10 03:22:57;;;;;;;803.53;724.67;;;12.60;99.90;;;;;;6216191;23;20422;-87
2023/05/10 03:25:24;;;;;;;805.80;727.07;;;12.60;99.90;;;;;;6216491;23;20420;-87
2023/05/10 03:27:55;;;;;;;818.97;739.50;;;12.60;99.90;;;;;;6216299;23;20440;-87
2023/05/10 03:30:23;;;;;;;803.50;724.63;;;12.70;99.90;;;;;;6215526;23;20392;-88
2023/05/10 03:32:50;;;;;;;796.13;717.40;;;12.70;99.90;;;;;;6215782;23;20487;-87
2023/05/10 03:35:17;;;;;;;800.90;722.03;;;12.70;99.90;;;;;;6216144;23;20491;-87
2023/05/10 03:37:43;;;;;;;800.47;721.77;;;12.70;99.90;;;;;;6215816;23;20408;-88
2023/05/10 03:40:10;;;;;;;803.40;724.97;;;12.70;99.90;;;;;;6225412;23;20490;-87
2023/05/10 03:42:37;;;;;;;794.33;715.70;;;12.70;99.90;;;;;;6216075;23;20412;-88
2023/05/10 03:45:07;;;;;;;798.83;719.77;;;12.80;99.90;;;;;;6215499;23;20408;-87
2023/05/10 03:47:34;;;;;;;789.60;710.70;;;12.70;99.90;;;;;;6215646;23;20884;-88
2023/05/10 03:50:01;;;;;;;786.80;708.40;;;12.70;99.90;;;;;;6215743;23;20491;-88
2023/05/10 03:52:28;;;;;;;785.13;706.93;;;12.80;99.90;;;;;;6216259;23;20504;-88
2023/05/10 03:54:55;;;;;;;795.37;715.87;;;12.80;99.90;;;;;;6215942;23;20412;-88
2023/05/10 03:57:22;;;;;;;777.43;699.87;;;12.80;99.90;;;;;;6216012;23;20797;-88
2023/05/10 03:59:49;;;;;;;793.03;714.80;;;12.80;99.90;;;;;;6214783;23;20412;-88
2023/05/10 04:02:17;;;;;;;798.47;720.17;;;12.90;99.90;;;;;;6216150;23;20539;-88
2023/05/10 04:04:44;;;;;;;801.53;724.80;;;12.80;99.90;;;;;;6225744;23;20416;-87
2023/05/10 04:07:11;;;;;;;805.67;728.87;;;12.80;99.90;;;;;;6215150;23;20424;-87
2023/05/10 04:09:38;;;;;;;808.90;732.40;;;12.90;99.90;;;;;;6225143;23;20424;-88
2023/05/10 04:12:05;;;;;;;795.90;720.47;;;12.80;99.90;;;;;;6215665;23;20447;-88
2023/05/10 04:14:32;;;;;;;804.87;730.00;;;12.90;99.90;;;;;;6215981;23;20766;-88
2023/05/10 04:17:01;;;;;;;798.97;724.83;;;12.80;99.90;;;;;;6216222;23;20471;-88
2023/05/10 04:19:32;;;;;;;799.27;726.50;;;12.80;99.90;;;;;;6217185;23;20466;-88
2023/05/10 04:22:00;;;;;;;797.57;726.07;;;12.70;99.90;;;;;;6227674;23;20412;-88
2023/05/10 04:24:27;;;;;;;801.90;729.63;;;12.70;99.90;;;;;;6227381;23;20904;-89
2023/05/10 04:26:56;;;;;;;797.07;725.43;;;12.60;99.90;;;;;;6227951;23;20422;-88
2023/05/10 04:29:23;;;;;;;809.47;739.83;;;12.60;99.90;;;;;;6226658;23;20745;-88
2023/05/10 04:31:50;;;;;;;798.67;728.67;;;12.60;99.90;;;;;;6216064;23;20416;-88
2023/05/10 04:34:17;;;;;;;794.70;725.63;;;12.60;99.90;;;;;;6225866;23;20734;-88
2023/05/10 04:36:46;;;;;;;795.80;727.70;;;12.60;99.90;;;;;;6215830;23;20742;-88
2023/05/10 04:39:13;;;;;;;786.37;719.77;;;12.50;99.90;;;;;;6214288;23;20915;-87
2023/05/10 04:41:40;;;;;;;759.67;694.20;;;12.60;99.90;;;;;;6215684;23;20749;-85
2023/05/10 04:44:07;;;;;;;755.00;691.40;;;12.60;99.90;;;;;;6215351;23;20495;-86
2023/05/10 04:46:34;;;;;;;737.20;675.73;;;12.70;99.90;;;;;;6225737;23;20434;-87
2023/05/10 04:49:01;;;;;;;723.73;665.53;;;12.70;99.90;;;;;;6215036;23;20441;-87
2023/05/10 04:51:28;;;;;;;729.37;670.10;;;12.70;99.90;;;;;;6215204;23;20438;-86
2023/05/10 04:53:56;;;;;;;739.53;681.53;;;12.70;99.90;;;;;;6215066;23;20420;-86
2023/05/10 04:56:23;;;;;;;733.00;675.37;;;12.70;99.90;;;;;;6215558;23;20414;-86
2023/05/10 04:58:50;;;;;;;719.07;662.60;;;12.70;99.90;;;;;;6214779;23;20408;-86
2023/05/10 05:01:17;;;;;;;718.73;661.57;;;12.70;99.90;;;;;;6214560;23;20412;-86
2023/05/10 05:03:44;;;;;;;711.77;655.33;;;12.80;99.90;;;;;;6214819;23;20408;-83
2023/05/10 05:06:10;;;;;;;697.87;642.63;;;12.80;99.90;;;;;;6214599;23;20423;-83
2023/05/10 05:08:37;;;;;;;722.77;667.67;;;12.80;99.90;;;;;;6214646;23;20440;-83
2023/05/10 05:11:06;;;;;;;718.67;664.07;;;12.90;99.90;;;;;;6214787;23;20439;-83
2023/05/10 05:13:33;;;;;;;726.67;671.10;;;12.90;99.90;;;;;;6214258;23;20419;-83
2023/05/10 05:16:03;;;;;;;716.60;662.43;;;12.90;99.90;;;;;;6214827;23;20420;-83
2023/05/10 05:18:30;;;;;;;704.60;650.77;;;13.00;99.90;;;;;;6214721;23;20458;-88
2023/05/10 05:20:57;;;;;;;703.40;647.90;;;12.90;99.90;;;;;;6214553;23;20412;-88
2023/05/10 05:23:25;;;;;;;696.47;643.17;;;13.00;99.90;;;;;;6215100;23;20416;-87
2023/05/10 05:25:53;;;;;;;703.83;650.90;;;12.90;99.90;;;;;;6224998;23;20423;-87
2023/05/10 05:28:22;;;;;;;700.67;647.37;;;13.00;99.90;;;;;;6214772;23;20418;-88
2023/05/10 05:30:49;;;;;;;709.90;656.10;;;13.00;99.90;;;;;;6214770;23;20416;-87
2023/05/10 05:33:16;;;;;;;715.17;660.63;;;13.00;99.90;;;;;;6214571;23;20416;-85
2023/05/10 05:35:47;;;;;;;712.53;657.87;;;13.00;99.90;;;;;;6213372;23;20412;-87
2023/05/10 05:38:14;;;;;;;697.10;642.53;;;13.10;99.90;;;;;;6214077;23;20857;-87
2023/05/10 05:40:41;;;;;;;710.03;654.10;;;13.10;99.90;;;;;;6214846;23;20734;-87
2023/05/10 05:43:07;;;;;;;708.67;653.40;;;13.10;99.90;;;;;;6214404;23;20419;-86
2023/05/10 05:45:36;;;;;;;712.60;657.80;;;13.10;99.90;;;;;;6214098;23;20412;-87
2023/05/10 05:48:03;;;;;;;708.33;654.37;;;13.10;99.90;;;;;;6213618;23;20897;-87
2023/05/10 05:50:29;;;;;;;718.70;664.80;;;13.10;99.90;;;;;;6214345;23;20759;-86
2023/05/10 05:52:57;;;;;;;714.97;660.83;;;13.10;99.90;;;;;;6214656;23;20442;-87
2023/05/10 05:55:25;;;;;;;709.80;655.97;;;13.10;99.90;;;;;;6214179;23;20419;-87
2023/05/10 05:57:52;;;;;;;710.70;654.90;;;13.00;99.90;;;;;;6214034;23;20904;-85
2023/05/10 06:00:21;;;;;;;724.30;667.97;;;13.10;99.90;;;;;;6213777;23;20436;-85
2023/05/10 06:02:49;;;;;;;712.57;656.60;;;13.10;99.90;;;;;;6213771;23;20448;-85
2023/05/10 06:05:16;;;;;;;720.57;665.23;;;13.20;99.90;;;;;;6213907;23;20979;-85
2023/05/10 06:07:43;;;;;;;721.10;666.60;;;13.20;99.90;;;;;;6212999;23;20474;-85
2023/05/10 06:10:11;;;;;;;721.17;667.07;;;13.00;99.90;;;;;;6214082;23;20444;-85
2023/05/10 06:12:38;;;;;;;717.33;662.50;;;13.00;99.90;;;;;;6214280;23;20727;-83
2023/05/10 06:15:06;;;;;;;725.60;669.90;;;13.00;99.90;;;;;;6213763;23;20434;-83
2023/05/10 06:17:33;;;;;;;725.40;669.73;;;12.90;99.90;;;;;;6214272;23;20486;-84
2023/05/10 06:20:02;;;;;;;726.67;668.73;;;13.00;99.90;;;;;;6214235;23;20415;-83
2023/05/10 06:22:29;;;;;;;727.30;668.33;;;12.90;99.90;;;;;;6213783;23;20422;-84
2023/05/10 06:24:56;;;;;;;730.27;669.93;;;12.90;99.90;;;;;;6214072;23;20499;-84
2023/05/10 06:27:23;;;;;;;734.17;672.67;;;12.90;99.90;;;;;;6212281;23;20412;-84
2023/05/10 06:29:50;;;;;;;739.30;677.80;;;13.00;99.90;;;;;;6213658;23;20442;-84
2023/05/10 06:32:16;;;;;;;732.73;670.73;;;13.10;99.90;;;;;;6213620;23;20922;-83
2023/05/10 06:34:44;;;;;;;736.43;673.67;;;13.20;99.90;;;;;;6223720;23;20408;-84
2023/05/10 06:37:12;;;;;;;728.87;665.07;;;13.10;99.90;;;;;;6213496;23;20412;-84
2023/05/10 06:39:39;;;;;;;737.43;673.20;;;13.20;99.90;;;;;;6213449;23;20439;-84
2023/05/10 06:42:06;;;;;;;712.50;648.77;;;13.30;99.90;;;;;;6223175;23;20914;-84
2023/05/10 06:44:33;;;;;;;720.10;656.00;;;13.30;99.90;;;;;;6213100;23;20412;-84
2023/05/10 06:47:00;;;;;;;738.50;674.87;;;13.40;99.90;;;;;;6213638;23;20415;-84
2023/05/10 06:49:27;;;;;;;728.60;666.60;;;13.40;99.90;;;;;;6212919;23;21029;-84
2023/05/10 06:51:53;;;;;;;725.80;664.77;;;13.30;99.90;;;;;;6214221;23;20742;-83
2023/05/10 06:54:22;;;;;;;718.73;659.83;;;13.30;99.90;;;;;;6213688;23;20412;-83
2023/05/10 06:56:49;;;;;;;716.27;658.20;;;13.30;99.90;;;;;;6223537;23;20691;-84
2023/05/10 06:59:16;;;;;;;725.03;665.57;;;13.40;99.90;;;;;;6213381;23;20742;-82
2023/05/10 07:01:43;;;;;;;714.97;657.13;;;13.50;99.90;;;;;;6215293;23;20407;-82
2023/05/10 07:04:10;;;;;;;718.50;661.40;;;13.60;99.90;;;;;;6214601;23;20412;-83
2023/05/10 07:06:37;;;;;;;721.80;665.50;;;13.60;99.90;;;;;;6214600;23;20426;-82
2023/05/10 07:09:04;;;;;;;724.80;669.43;;;13.60;99.90;;;;;;6215129;23;20412;-82
2023/05/10 07:11:32;;;;;;;724.57;668.97;;;13.70;99.90;;;;;;6215599;23;20486;-82
2023/05/10 07:13:59;;;;;;;733.47;677.90;;;13.80;99.90;;;;;;6215609;23;20411;-83
2023/05/10 07:16:26;;;;;;;735.70;680.80;;;13.90;99.90;;;;;;6215467;23;20416;-82
2023/05/10 07:18:53;;;;;;;697.60;650.50;;;14.20;99.90;;;;;;6214731;23;20443;-83
2023/05/10 07:21:20;;;;;;;699.90;652.60;;;14.20;99.90;;;;;;6214716;23;20439;-83
2023/05/10 07:23:47;;;;;;;686.33;641.43;;;14.50;99.90;;;;;;6215203;23;20419;-83
2023/05/10 07:26:14;;;;;;;606.57;575.17;;;14.60;99.90;;;;;;6215037;23;20884;-83
2023/05/10 07:28:43;;;;;;;610.43;579.03;;;14.40;99.90;;;;;;6215512;23;20443;-83
2023/05/10 07:31:09;;;;;;;611.70;580.53;;;14.30;99.90;;;;;;6215028;23;20435;-83
2023/05/10 07:33:36;;;;;;;608.53;578.37;;;14.10;99.90;;;;;;6215600;23;20747;-82
2023/05/10 07:36:03;;;;;;;625.80;593.43;;;14.00;99.90;;;;;;6215093;23;20732;-82
2023/05/10 07:38:30;;;;;;;652.30;617.97;;;13.90;99.90;;;;;;6215505;23;20734;-82
2023/05/10 07:41:00;;;;;;;678.07;638.60;;;13.90;99.90;;;;;;6214057;23;20712;-83
2023/05/10 07:43:27;;;;;;;687.67;644.80;;;14.00;99.90;;;;;;6215391;23;20972;-82
2023/05/10 07:45:57;;;;;;;690.23;646.80;;;14.10;99.90;;;;;;6215349;23;20490;-82
2023/05/10 07:48:24;;;;;;;666.60;627.60;;;14.20;99.90;;;;;;6214988;23;20412;-83
2023/05/10 07:50:51;;;;;;;645.37;610.37;;;14.40;99.90;;;;;;6214983;23;20436;-82
2023/05/10 07:53:18;;;;;;;616.43;584.63;;;14.30;99.90;;;;;;6215293;23;20422;-83
2023/05/10 07:55:45;;;;;;;578.63;551.23;;;14.40;99.90;;;;;;6215082;23;20412;-84
2023/05/10 07:58:12;;;;;;;595.60;567.27;;;14.50;99.90;;;;;;6215199;23;20893;-86
2023/05/10 08:00:41;;;;;;;581.00;553.63;;;14.80;99.90;;;;;;6215653;23;20419;-82
2023/05/10 08:03:09;;;;;;;490.73;468.73;;;15.10;99.90;;;;;;6225404;23;20463;-82
2023/05/10 08:05:36;;;;;;;464.20;444.77;;;15.40;99.90;;;;;;6215266;23;20749;-82
2023/05/10 08:08:02;;;;;;;295.50;282.50;;;15.80;99.90;;;;;;6215461;23;20491;-82
2023/05/10 08:10:29;;;;;;;282.13;270.13;;;16.00;99.90;;;;;;6215179;23;20475;-82
2023/05/10 08:12:58;;;;;;;71.73;66.33;;;16.30;99.90;;;;;;6214885;23;20412;-83
2023/05/10 08:15:24;;;;;;;36.63;31.73;;;16.60;99.90;;;;;;6215087;23;20449;-83
2023/05/10 08:17:52;;;;;;;35.90;27.10;;;16.70;99.90;;;;;;6224478;23;20411;-82
2023/05/10 08:20:21;;;;;;;35.83;23.60;;;16.90;99.90;;;;;;6214635;23;20404;-83
2023/05/10 08:22:48;;;;;;;34.27;22.83;;;16.90;99.90;;;;;;6215514;23;20415;-83
2023/05/10 08:25:15;;;;;;;32.20;18.13;;;16.70;99.90;;;;;;6215095;23;20415;-82
2023/05/10 08:27:42;;;;;;;30.27;17.77;;;16.60;99.90;;;;;;6215606;23;20415;-83
2023/05/10 08:30:10;;;;;;;35.97;18.60;;;16.30;99.90;;;;;;6214896;23;20432;-82
2023/05/10 08:32:37;;;;;;;35.43;19.30;;;16.20;99.90;;;;;;6215413;23;20420;-82
2023/05/10 08:35:05;;;;;;;35.20;19.17;;;16.20;99.90;;;;;;6215364;23;20898;-82
2023/05/10 08:37:33;;;;;;;36.67;20.90;;;16.20;99.90;;;;;;6215530;23;20436;-82
2023/05/10 08:40:00;;;;;;;40.60;21.37;;;16.40;99.90;;;;;;6215247;23;20410;-82
2023/05/10 08:42:31;;;;;;;34.13;17.50;;;16.80;99.90;;;;;;6215540;23;20427;-83
2023/05/10 08:45:00;;;;;;;32.23;19.13;;;16.80;99.90;;;;;;6215362;23;20399;-82
2023/05/10 08:47:27;;;;;;;32.10;17.33;;;16.80;99.90;;;;;;6215434;23;20417;-82
2023/05/10 08:49:55;;;;;;;37.63;17.97;;;16.70;99.90;;;;;;6214801;23;20441;-82
2023/05/10 08:52:24;;;;;;;33.93;17.83;;;16.50;99.90;;;;;;6215408;23;20415;-82
2023/05/10 08:54:52;;;;;;;29.40;18.33;;;16.30;99.90;;;;;;6215335;23;20421;-82
2023/05/10 08:57:20;;;;;;;30.80;16.27;;;16.10;99.90;;;;;;6225164;23;20738;-82
2023/05/10 08:59:47;;;;;;;36.50;18.50;;;15.90;99.90;;;;;;6214981;23;20416;-82
2023/05/10 09:02:14;;;;;;;39.83;18.67;;;15.90;99.90;;;;;;6215402;23;20413;-82
2023/05/10 09:04:41;;;;;;;36.53;20.10;;;15.40;99.90;;;;;;6215222;23;20500;-82
2023/05/10 09:07:08;;;;;;;34.77;19.60;;;15.30;99.90;;;;;;6214873;23;20419;-82
2023/05/10 09:09:35;;;;;;;45.17;25.27;;;15.10;99.90;;;;;;6214940;23;20419;-82
2023/05/10 09:12:04;;;;;;;36.87;24.70;;;15.10;99.90;;;;;;6215236;23;20415;-82
2023/05/10 09:14:34;;;;;;;36.50;23.70;;;14.90;99.90;;;;;;6214765;23;20412;-82
2023/05/10 09:17:01;;;;;;;34.07;26.20;;;14.70;99.90;;;;;;6215226;23;20434;-82
2023/05/10 09:19:29;;;;;;;42.73;33.27;;;14.60;99.90;;;;;;6214865;23;20408;-82
2023/05/10 09:21:56;;;;;;;66.53;61.03;;;14.40;99.90;;;;;;6215209;23;20416;-82
2023/05/10 09:24:27;;;;;;;92.23;86.43;;;14.40;99.90;;;;;;6215075;23;20412;-81
2023/05/10 09:26:53;;;;;;;105.73;99.43;;;14.60;99.90;;;;;;6215051;23;20400;-82
2023/05/10 09:29:22;;;;;;;66.93;61.90;;;14.90;99.90;;;;;;6214874;23;20470;-82
2023/05/10 09:31:52;;;;;;;40.47;36.23;;;15.20;99.90;;;;;;6214828;23;20506;-82
2023/05/10 09:34:20;;;;;;;33.47;21.10;;;15.60;99.90;;;;;;6214981;23;20404;-82
2023/05/10 09:36:54;;;;;;;29.47;17.77;;;15.90;99.90;;;;;;6215031;23;20412;-82
2023/05/10 09:39:21;;;;;;;26.00;15.60;;;16.20;99.90;;;;;;6214847;23;20953;-82
2023/05/10 09:41:49;;;;;;;27.63;17.03;;;16.30;99.90;;;;;;6215124;23;20733;-82
2023/05/10 09:44:18;;;;;;;25.80;15.20;;;16.50;99.90;;;;;;6215054;23;20413;-82
2023/05/10 09:46:52;;;;;;;28.57;16.70;;;16.90;99.90;;;;;;6214897;23;20780;-82
2023/05/10 09:49:19;;;;;;;28.27;15.90;;;17.10;99.90;;;;;;6214477;23;20514;-82
2023/05/10 09:51:58;;;;;;;24.07;14.77;;;17.00;99.90;;;;;;6213380;23;20438;-82
2023/05/10 09:54:25;;;;;;;30.40;14.43;;;17.00;99.90;;;;;;6214416;23;20396;-83
2023/05/10 09:56:51;;;;;;;25.50;15.67;;;16.70;99.90;;;;;;6215011;23;20412;-86
2023/05/10 09:59:19;;;;;;;26.77;15.80;;;16.50;99.90;;;;;;6216375;23;20510;-83
2023/05/10 10:01:52;;;;;;;29.87;16.57;;;16.30;99.90;;;;;;6215565;23;20488;-83
2023/05/10 10:04:20;;;;;;;27.73;15.80;;;16.20;99.90;;;;;;6214155;23;20406;-82
2023/05/10 10:06:47;;;;;;;26.73;15.40;;;16.20;99.90;;;;;;6214358;23;20442;-82
2023/05/10 10:09:15;;;;;;;32.50;17.10;;;16.60;99.90;;;;;;6214460;23;20412;-82
2023/05/10 10:11:42;;;;;;;27.80;14.33;;;17.60;99.90;;;;;;6214558;23;20443;-85
2023/05/10 10:14:09;;;;;;;21.47;11.97;;;18.40;99.90;;;;;;6214585;23;20413;-82
2023/05/10 10:16:36;;;;;;;20.50;12.60;;;18.40;99.90;;;;;;6214703;23;20420;-87
2023/05/10 10:19:04;;;;;;;18.40;11.47;;;18.90;99.90;;;;;;6214448;23;20409;-82
2023/05/10 10:21:32;;;;;;;21.03;11.67;;;18.80;99.90;;;;;;6214189;23;20943;-82
2023/05/10 10:24:00;;;;;;;18.30;10.90;;;18.40;99.90;;;;;;6214265;23;20411;-82
2023/05/10 10:26:27;;;;;;;21.97;13.00;;;18.30;99.90;;;;;;6214542;23;20418;-82
2023/05/10 10:29:08;;;;;;;20.20;12.20;;;18.40;99.90;;;;;;6214092;23;20424;-82
2023/05/10 10:31:41;;;;;;;21.10;11.83;;;18.40;99.90;;;;;;6214704;23;20426;-82
2023/05/10 10:34:13;;;;;;;19.13;12.07;;;18.00;99.90;;;;;;6214804;23;20393;-82
2023/05/10 10:36:46;;;;;;;21.47;11.60;;;18.00;99.90;;;;;;6216444;23;20768;-82
2023/05/10 10:39:13;;;;;;;16.50;9.47;;;18.40;99.90;;;;;;6216322;23;20421;-83
2023/05/10 10:41:43;;;;;;;17.83;10.20;;;18.30;99.90;;;;;;6216212;23;20491;-82
2023/05/10 10:44:37;;;;;;;16.57;9.93;;;18.30;99.90;;;;;;6216344;23;20398;-83
2023/05/10 10:47:08;;;;;;;19.53;9.87;;;18.40;99.90;;;;;;6216412;23;20402;-83
2023/05/10 10:49:44;;;;;;;14.13;8.53;;;18.40;99.90;;;;;;6216456;23;20713;-83
2023/05/10 10:52:26;;;;;;;15.20;8.20;;;18.00;99.90;;;;;;6216023;23;20425;-83
2023/05/10 10:54:55;;;;;;;15.43;8.83;;;17.90;99.90;;;;;;6216492;23;20403;-82
2023/05/10 10:57:26;;;;;;;15.67;8.80;;;17.90;99.90;;;;;;6216419;23;20422;-83
2023/05/10 11:00:13;;;;;;;15.53;9.13;;;18.20;99.90;;;;;;6215889;23;20425;-83
2023/05/10 11:02:48;;;;;;;17.10;9.67;;;18.10;99.90;;;;;;6215738;23;20506;-83
2023/05/10 11:05:44;;;;;;;17.00;9.20;;;18.00;99.90;;;;;;6216370;23;20414;-83
2023/05/10 11:08:27;;;;;;;15.33;8.60;;;18.20;99.90;;;;;;6226413;23;20459;-83
2023/05/10 11:11:06;;;;;;;17.37;8.67;;;18.20;99.90;;;;;;6215740;23;20814;-83
2023/05/10 11:13:35;;;;;;;16.33;8.27;;;18.20;99.90;;;;;;6216274;23;20772;-83
2023/05/10 11:16:19;;;;;;;15.83;8.87;;;18.00;99.90;;;;;;6225514;23;20409;-83
2023/05/10 11:19:01;;;;;;;12.60;7.50;;;18.30;99.90;;;;;;6215644;23;20922;-83
2023/05/10 11:21:29;;;;;;;12.27;7.70;;;18.10;99.90;;;;;;6215764;23;20458;-83
2023/05/10 11:23:58;;;;;;;16.03;7.50;;;17.90;99.90;;;;;;6216063;23;20418;-83
2023/05/10 11:26:26;;;;;;;13.80;7.50;;;18.10;99.90;;;;;;6215982;23;20455;-83
2023/05/10 11:28:55;;;;;;;13.70;7.33;;;18.00;99.90;;;;;;6215855;23;20414;-86
2023/05/10 11:31:22;;;;;;;11.90;6.73;;;18.30;99.90;;;;;;6215784;23;20520;-82
2023/05/10 11:33:52;;;;;;;12.10;7.07;;;18.60;99.90;;;;;;6215933;23;20419;-82
2023/05/10 11:36:21;;;;;;;12.30;6.80;;;18.80;99.90;;;;;;6215660;23;20452;-82
2023/05/10 11:38:49;;;;;;;14.40;7.20;;;18.80;99.90;;;;;;6215932;23;20412;-82
2023/05/10 11:41:18;;;;;;;11.90;6.87;;;19.00;99.90;;;;;;6215701;23;20465;-82
2023/05/10 11:43:48;;;;;;;10.90;7.20;;;18.80;99.90;;;;;;6215842;23;20412;-83
2023/05/10 11:46:15;;;;;;;17.50;7.57;;;19.20;99.90;;;;;;6214901;23;20403;-83
2023/05/10 11:48:43;;;;;;;12.60;6.57;;;19.50;99.90;;;;;;6215177;23;20496;-83
2023/05/10 11:51:11;;;;;;;13.27;7.50;;;20.20;99.90;;;;;;6215684;23;20756;-82
2023/05/10 11:53:38;;;;;;;11.30;6.07;;;20.80;99.90;;;;;;6225613;23;20887;-83
2023/05/10 11:56:08;;;;;;;11.97;6.87;;;20.50;99.80;;;;;;6215470;23;20417;-83
2023/05/10 11:58:36;;;;;;;14.60;7.30;;;20.00;99.00;;;;;;6215464;23;20423;-82
2023/05/10 12:01:04;;;;;;;16.93;7.20;;;20.40;98.60;;;;;;6215526;23;20779;-83
2023/05/10 12:03:31;;;;;;;11.67;7.30;;;20.10;98.30;;;;;;6215189;23;20425;-84
2023/05/10 12:05:59;;;;;;;12.33;7.83;;;20.50;96.30;;;;;;6215406;23;20430;-87
2023/05/10 12:08:28;;;;;;;11.07;7.37;;;20.70;95.40;;;;;;6216249;23;20470;-86
2023/05/10 12:11:10;;;;;;;10.87;6.70;;;22.20;96.00;;;;;;6225385;23;20509;-88
2023/05/10 12:13:40;;;;;;;13.17;6.97;;;23.40;89.20;;;;;;6225789;23;20410;-87
2023/05/10 12:16:17;;;;;;;10.20;5.60;;;23.00;88.80;;;;;;6225776;23;20408;-86
2023/05/10 12:18:44;;;;;;;11.70;6.10;;;22.30;81.80;;;;;;6226808;23;20957;-89
2023/05/10 12:21:12;;;;;;;7.60;4.40;;;21.80;87.70;;;;;;6215974;23;20501;-86
2023/05/10 12:23:39;;;;;;;9.60;4.87;;;21.40;90.70;;;;;;6225160;23;20421;-85
2023/05/10 12:26:09;;;;;;;6.93;3.77;;;21.60;90.60;;;;;;6215407;23;20974;-87
2023/05/10 12:28:36;;;;;;;7.20;3.90;;;21.50;90.20;;;;;;6224897;23;20410;-82